Time;durP1;ratioP1;P1;durP2;ratioP2;P2;SDS_P1;SDS_P2;PMS_P1;PMS_P2;Temp;Humidity;BMP_temperature;BMP_pressure;BME280_temperature;BME280_humidity;BME280_pressure;Samples;Min_cycle;Max_cycle;Signal;HPM_P1;HPM_P2
2022/06/30 00:00:12;;;;;;;4.35;3.10;;;20.40;99.90;;;;;;5053871;28;20692;-63
2022/06/30 00:02:39;;;;;;;4.80;3.65;;;20.50;99.90;;;;;;5053879;28;20431;-63
2022/06/30 00:05:07;;;;;;;9.23;3.63;;;20.50;99.90;;;;;;5053907;28;20670;-62
2022/06/30 00:07:34;;;;;;;4.65;3.35;;;20.50;99.90;;;;;;5054154;28;20213;-62
2022/06/30 00:10:03;;;;;;;4.45;3.70;;;20.40;99.90;;;;;;5054154;28;20230;-62
2022/06/30 00:12:30;;;;;;;5.88;3.50;;;20.40;99.90;;;;;;5054995;28;20279;-62
2022/06/30 00:14:56;;;;;;;4.03;3.35;;;20.20;99.90;;;;;;5054092;28;20209;-63
2022/06/30 00:17:23;;;;;;;4.63;3.58;;;20.30;99.90;;;;;;5053860;28;20205;-61
2022/06/30 00:19:50;;;;;;;4.03;3.63;;;20.20;99.90;;;;;;5053890;28;20212;-62
2022/06/30 00:22:16;;;;;;;4.85;3.83;;;20.30;99.90;;;;;;5054387;28;20221;-63
2022/06/30 00:24:43;;;;;;;4.72;3.55;;;20.20;99.90;;;;;;5054003;28;20214;-63
2022/06/30 00:27:12;;;;;;;5.47;3.70;;;20.20;99.90;;;;;;5054057;28;20267;-63
2022/06/30 00:29:39;;;;;;;6.82;3.67;;;20.10;99.90;;;;;;5054023;28;20636;-63
2022/06/30 00:32:06;;;;;;;4.57;3.50;;;20.10;99.90;;;;;;5053573;28;20627;-63
2022/06/30 00:34:33;;;;;;;6.00;3.40;;;20.00;99.90;;;;;;5054659;28;20613;-63
2022/06/30 00:37:00;;;;;;;6.60;4.03;;;20.00;99.90;;;;;;5054077;28;20214;-62
2022/06/30 00:39:27;;;;;;;4.50;3.65;;;20.00;99.90;;;;;;5054624;28;20228;-63
2022/06/30 00:41:54;;;;;;;4.43;3.60;;;19.90;99.90;;;;;;5052238;28;20793;-63
2022/06/30 00:44:22;;;;;;;8.35;3.30;;;19.90;99.90;;;;;;5054064;28;20255;-62
2022/06/30 00:46:49;;;;;;;9.00;3.55;;;19.80;99.90;;;;;;5054976;28;20205;-62
2022/06/30 00:49:18;;;;;;;5.65;3.67;;;19.70;99.90;;;;;;5054776;28;20567;-62
2022/06/30 00:51:45;;;;;;;4.15;3.75;;;19.70;99.90;;;;;;5053081;28;20597;-63
2022/06/30 00:54:12;;;;;;;6.43;4.00;;;19.60;99.90;;;;;;5052878;28;20201;-61
2022/06/30 00:56:43;;;;;;;7.03;3.90;;;19.60;99.90;;;;;;5052757;28;20206;-61
2022/06/30 00:59:13;;;;;;;5.63;3.75;;;19.60;99.90;;;;;;5052825;28;20205;-61
2022/06/30 01:01:43;;;;;;;5.25;4.03;;;19.60;99.90;;;;;;5053017;28;20206;-69
2022/06/30 01:04:10;;;;;;;6.05;4.30;;;19.60;99.90;;;;;;5053124;28;20206;-70
2022/06/30 01:06:38;;;;;;;6.00;4.38;;;19.60;99.90;;;;;;5052921;28;20205;-64
2022/06/30 01:09:05;;;;;;;4.90;4.40;;;19.60;99.90;;;;;;5052757;28;20209;-62
2022/06/30 01:14:18;;;;;;;6.13;3.88;;;19.60;99.90;;;;;;5052694;28;20283;-63
2022/06/30 01:16:46;;;;;;;7.85;4.20;;;19.50;99.90;;;;;;5052352;28;20315;-62
2022/06/30 01:19:15;;;;;;;4.35;3.95;;;19.50;99.90;;;;;;5052709;28;20217;-62
2022/06/30 01:21:58;;;;;;;4.80;4.18;;;19.50;99.90;;;;;;5052609;28;20673;-62
2022/06/30 01:24:25;;;;;;;5.35;3.88;;;19.60;99.90;;;;;;5053086;28;20205;-62
2022/06/30 01:26:56;;;;;;;5.13;3.85;;;19.60;99.90;;;;;;5052920;28;20209;-62
2022/06/30 01:29:23;;;;;;;6.68;4.18;;;19.60;99.90;;;;;;5054281;28;20217;-62
2022/06/30 01:31:49;;;;;;;4.53;4.03;;;19.50;99.90;;;;;;5053130;28;20225;-62
2022/06/30 01:34:16;;;;;;;7.28;4.18;;;19.40;99.90;;;;;;5052845;28;20243;-61
2022/06/30 01:36:44;;;;;;;8.52;4.28;;;19.40;99.90;;;;;;5053141;28;20210;-62
2022/06/30 01:39:11;;;;;;;5.25;3.70;;;19.30;99.90;;;;;;5052988;28;20620;-62
2022/06/30 01:41:37;;;;;;;5.35;3.95;;;19.30;99.90;;;;;;5052377;28;20262;-61
2022/06/30 01:44:05;;;;;;;4.78;4.28;;;19.30;99.90;;;;;;5052541;28;20226;-62
2022/06/30 01:46:31;;;;;;;5.10;4.03;;;19.30;99.90;;;;;;5052253;28;20216;-62
2022/06/30 01:48:58;;;;;;;5.10;4.07;;;19.30;99.90;;;;;;5051973;28;20673;-62
2022/06/30 01:51:25;;;;;;;4.90;4.13;;;19.30;99.90;;;;;;5052469;28;20640;-62
2022/06/30 01:53:53;;;;;;;8.07;4.30;;;19.30;99.90;;;;;;5056522;28;20275;-62
2022/06/30 01:56:20;;;;;;;7.13;4.25;;;19.30;99.90;;;;;;5056109;28;20212;-62
2022/06/30 01:58:46;;;;;;;6.28;4.05;;;19.30;99.90;;;;;;5056667;28;20209;-62
2022/06/30 02:01:13;;;;;;;4.90;4.10;;;19.30;99.90;;;;;;5056388;28;20209;-62
2022/06/30 02:03:40;;;;;;;8.38;4.43;;;19.20;99.90;;;;;;5056081;28;20233;-62
2022/06/30 02:06:07;;;;;;;7.15;4.50;;;19.20;99.90;;;;;;5056354;28;20221;-62
2022/06/30 02:08:33;;;;;;;6.20;4.90;;;19.30;99.90;;;;;;5056167;28;20685;-62
2022/06/30 02:11:01;;;;;;;6.95;4.32;;;19.20;99.90;;;;;;5055996;28;20225;-62
2022/06/30 02:13:28;;;;;;;9.10;4.10;;;19.10;99.90;;;;;;5056425;28;20256;-62
2022/06/30 02:15:55;;;;;;;6.70;4.28;;;19.10;99.90;;;;;;5055828;28;20209;-62
2022/06/30 02:18:22;;;;;;;10.30;4.60;;;19.10;99.90;;;;;;5056069;28;20581;-62
2022/06/30 02:20:49;;;;;;;5.93;4.43;;;19.10;99.90;;;;;;5056162;28;20213;-62
2022/06/30 02:23:15;;;;;;;7.18;4.18;;;19.00;99.90;;;;;;5055625;28;20222;-62
2022/06/30 02:25:42;;;;;;;5.20;4.65;;;19.00;99.90;;;;;;5055587;28;20624;-63
2022/06/30 02:28:10;;;;;;;6.50;4.13;;;19.00;99.90;;;;;;5055880;28;20224;-62
2022/06/30 02:30:37;;;;;;;7.75;4.90;;;19.00;99.90;;;;;;5056522;28;20659;-62
2022/06/30 02:33:04;;;;;;;8.90;4.88;;;18.90;99.90;;;;;;5057431;28;20287;-62
2022/06/30 02:35:31;;;;;;;6.55;4.57;;;19.00;99.90;;;;;;5057271;28;20617;-62
2022/06/30 02:37:57;;;;;;;4.72;4.32;;;19.00;99.90;;;;;;5056038;28;20213;-62
2022/06/30 02:40:24;;;;;;;8.10;4.57;;;19.00;99.90;;;;;;5055404;28;20631;-63
2022/06/30 02:42:51;;;;;;;8.15;4.47;;;19.00;99.90;;;;;;5055336;28;20226;-62
2022/06/30 02:45:19;;;;;;;5.57;4.80;;;19.00;99.90;;;;;;5055401;28;20205;-62
2022/06/30 02:47:46;;;;;;;6.90;4.45;;;19.00;99.90;;;;;;5055762;28;20214;-62
2022/06/30 02:50:13;;;;;;;6.97;4.25;;;19.00;99.90;;;;;;5055753;28;20233;-62
2022/06/30 02:52:42;;;;;;;5.15;3.95;;;19.00;99.90;;;;;;5055610;28;20611;-62
2022/06/30 02:55:10;;;;;;;7.72;4.60;;;19.00;99.90;;;;;;5055472;28;20674;-62
2022/06/30 02:57:37;;;;;;;4.80;4.30;;;19.00;99.90;;;;;;5054812;28;20232;-62
2022/06/30 03:00:06;;;;;;;6.53;4.25;;;18.90;99.90;;;;;;5055402;28;20212;-62
2022/06/30 03:02:34;;;;;;;7.57;4.25;;;18.90;99.90;;;;;;5055575;28;20256;-62
2022/06/30 03:05:01;;;;;;;8.48;4.88;;;18.90;99.90;;;;;;5054746;28;20205;-62
2022/06/30 03:07:28;;;;;;;6.10;4.47;;;18.90;99.90;;;;;;5055700;28;20205;-61
2022/06/30 03:09:54;;;;;;;8.90;5.22;;;18.80;99.90;;;;;;5055630;28;20263;-62
2022/06/30 03:12:21;;;;;;;6.72;5.10;;;18.80;99.90;;;;;;5055014;28;20241;-61
2022/06/30 03:14:48;;;;;;;4.63;4.22;;;18.70;99.90;;;;;;5055634;28;20255;-63
2022/06/30 03:17:14;;;;;;;6.15;4.68;;;18.70;99.90;;;;;;5055574;28;20297;-62
2022/06/30 03:19:43;;;;;;;6.80;5.07;;;18.70;99.90;;;;;;5054854;28;20705;-62
2022/06/30 03:22:09;;;;;;;6.10;4.65;;;18.70;99.90;;;;;;5055238;28;20225;-62
2022/06/30 03:24:36;;;;;;;6.32;4.60;;;18.70;99.90;;;;;;5055265;28;20217;-63
2022/06/30 03:27:03;;;;;;;8.23;4.93;;;18.60;99.90;;;;;;5054685;28;20205;-64
2022/06/30 03:29:30;;;;;;;7.13;4.65;;;18.60;99.90;;;;;;5055150;28;20209;-63
2022/06/30 03:31:57;;;;;;;6.50;4.57;;;18.50;99.90;;;;;;5054864;28;20593;-63
2022/06/30 03:34:24;;;;;;;6.53;5.03;;;18.40;99.90;;;;;;5077247;22;20221;-65
2022/06/30 03:36:52;;;;;;;6.97;5.13;;;18.40;99.90;;;;;;5053693;28;20635;-64
2022/06/30 03:39:18;;;;;;;8.35;4.80;;;18.30;99.90;;;;;;5053638;28;20224;-65
2022/06/30 03:41:45;;;;;;;7.20;5.15;;;18.30;99.90;;;;;;5053824;28;20259;-64
2022/06/30 03:44:12;;;;;;;9.32;5.00;;;18.30;99.90;;;;;;5053575;28;20233;-64
2022/06/30 03:46:38;;;;;;;9.55;5.35;;;18.30;99.90;;;;;;5053399;28;20527;-64
2022/06/30 03:49:05;;;;;;;6.95;5.15;;;18.40;99.90;;;;;;5053531;28;20201;-65
2022/06/30 03:51:32;;;;;;;6.93;6.00;;;18.40;99.90;;;;;;5053404;28;20225;-64
2022/06/30 03:54:00;;;;;;;5.80;5.30;;;18.40;99.90;;;;;;5053437;28;20309;-64
2022/06/30 03:56:27;;;;;;;8.18;5.50;;;18.40;99.90;;;;;;5053489;28;20567;-64
2022/06/30 03:58:53;;;;;;;7.95;5.20;;;18.40;99.90;;;;;;5053668;28;20624;-64
2022/06/30 04:01:20;;;;;;;7.82;5.13;;;18.40;99.90;;;;;;5053611;28;20198;-64
2022/06/30 04:03:47;;;;;;;5.57;4.93;;;18.40;99.90;;;;;;5053139;28;20438;-64
2022/06/30 04:06:13;;;;;;;8.40;4.68;;;18.40;99.90;;;;;;5052826;28;20205;-64
2022/06/30 04:08:40;;;;;;;6.30;5.13;;;18.50;99.90;;;;;;5052934;28;20381;-64
2022/06/30 04:11:09;;;;;;;5.35;4.78;;;18.50;99.90;;;;;;5053009;28;20210;-64
2022/06/30 04:13:36;;;;;;;7.10;4.82;;;18.50;99.90;;;;;;5052923;28;20276;-64
2022/06/30 04:16:02;;;;;;;6.72;5.03;;;18.60;99.90;;;;;;5052794;28;20237;-64
2022/06/30 04:18:29;;;;;;;8.88;5.25;;;18.70;99.90;;;;;;5052909;28;20700;-65
2022/06/30 04:20:56;;;;;;;6.65;5.05;;;18.70;99.90;;;;;;5052833;28;20698;-65
2022/06/30 04:23:23;;;;;;;10.75;5.38;;;18.80;99.90;;;;;;5053347;28;20646;-65
2022/06/30 04:25:49;;;;;;;7.55;5.00;;;18.80;99.90;;;;;;5053275;28;20231;-65
2022/06/30 04:28:17;;;;;;;7.25;4.70;;;18.90;99.90;;;;;;5052754;28;20209;-64
2022/06/30 04:33:28;;;;;;;5.55;4.90;;;19.00;99.90;;;;;;5052307;28;20232;-64
2022/06/30 04:35:55;;;;;;;7.47;4.82;;;19.00;99.90;;;;;;5052519;28;20271;-64
2022/06/30 04:38:21;;;;;;;6.50;4.95;;;19.20;99.90;;;;;;5052877;28;20245;-64
2022/06/30 04:43:34;;;;;;;5.18;4.40;;;19.40;99.90;;;;;;5052211;28;20703;-64
2022/06/30 04:46:00;;;;;;;5.78;4.97;;;19.50;99.90;;;;;;5052022;28;20206;-64
2022/06/30 04:48:27;;;;;;;6.03;4.90;;;19.70;99.90;;;;;;5052085;28;20747;-64
2022/06/30 04:50:54;;;;;;;5.03;4.20;;;20.20;99.90;;;;;;5052462;28;20209;-64
2022/06/30 04:53:20;;;;;;;6.00;3.78;;;21.40;99.90;;;;;;5052265;28;20287;-65
2022/06/30 04:55:47;;;;;;;5.60;4.03;;;23.00;99.90;;;;;;5052211;28;20228;-62
2022/06/30 04:58:14;;;;;;;3.65;3.35;;;24.70;99.90;;;;;;5052042;28;20251;-62
2022/06/30 05:00:42;;;;;;;3.40;3.10;;;26.20;99.90;;;;;;5052155;28;20700;-63
2022/06/30 05:03:08;;;;;;;5.18;3.25;;;27.60;99.90;;;;;;5052326;28;20296;-63
2022/06/30 05:05:35;;;;;;;5.60;3.10;;;28.70;99.90;;;;;;5052121;28;20209;-65
2022/06/30 05:08:02;;;;;;;6.35;3.50;;;29.50;99.90;;;;;;5051698;28;20738;-63
2022/06/30 05:10:28;;;;;;;5.32;3.08;;;30.30;99.90;;;;;;5051889;28;20209;-65
2022/06/30 05:12:55;;;;;;;8.45;3.13;;;31.20;99.90;;;;;;5051705;28;20233;-63
2022/06/30 05:15:22;;;;;;;8.32;3.42;;;32.10;99.90;;;;;;5051452;28;20255;-63
2022/06/30 05:17:50;;;;;;;6.55;3.22;;;32.80;99.90;;;;;;5051663;28;20201;-63
2022/06/30 05:20:16;;;;;;;4.10;3.00;;;33.20;98.60;;;;;;5051947;28;20566;-63
2022/06/30 05:22:43;;;;;;;4.85;3.03;;;33.40;96.90;;;;;;5051761;28;20235;-63
2022/06/30 05:27:54;;;;;;;6.28;3.17;;;33.80;94.80;;;;;;5051204;28;20290;-63
2022/06/30 05:30:21;;;;;;;2.92;2.63;;;34.10;93.90;;;;;;5051876;28;20205;-63
2022/06/30 05:32:47;;;;;;;5.95;2.80;;;34.70;93.00;;;;;;5051568;28;20225;-63
2022/06/30 05:35:16;;;;;;;4.68;3.00;;;35.30;91.50;;;;;;5051756;28;20224;-64
2022/06/30 05:37:42;;;;;;;3.65;2.58;;;36.00;89.10;;;;;;5051492;28;20210;-63
2022/06/30 05:40:10;;;;;;;4.05;2.45;;;36.70;84.80;;;;;;5052281;28;20205;-63
2022/06/30 05:42:37;;;;;;;4.75;2.78;;;37.20;82.10;;;;;;5052618;28;20259;-64
2022/06/30 05:45:04;;;;;;;5.15;2.97;;;37.80;78.70;;;;;;5052186;28;20265;-64
2022/06/30 05:47:31;;;;;;;7.53;2.72;;;38.30;77.00;;;;;;5051497;28;20673;-64
2022/06/30 05:49:58;;;;;;;5.22;2.70;;;38.90;72.90;;;;;;5052273;28;20212;-64
2022/06/30 05:52:26;;;;;;;6.03;2.88;;;39.30;71.00;;;;;;5052221;28;20323;-63
2022/06/30 05:54:53;;;;;;;5.22;2.63;;;39.50;69.30;;;;;;5051762;28;20202;-63
2022/06/30 05:57:19;;;;;;;6.78;2.97;;;39.80;68.00;;;;;;5051203;28;20715;-62
2022/06/30 05:59:46;;;;;;;7.82;3.00;;;40.20;65.70;;;;;;5051492;28;20622;-63
2022/06/30 06:02:13;;;;;;;3.08;2.53;;;40.40;64.40;;;;;;5051570;28;20217;-63
2022/06/30 06:04:39;;;;;;;5.50;2.70;;;40.50;62.70;;;;;;5051524;28;20229;-64
2022/06/30 06:07:06;;;;;;;4.60;3.30;;;40.40;62.80;;;;;;5051158;28;20239;-64
2022/06/30 06:09:34;;;;;;;5.00;3.00;;;40.20;62.20;;;;;;5051490;28;20206;-64
2022/06/30 06:12:01;;;;;;;6.03;2.65;;;40.30;61.90;;;;;;5051465;28;20279;-64
2022/06/30 06:14:28;;;;;;;4.85;2.95;;;40.40;61.30;;;;;;5051294;28;20226;-64
2022/06/30 06:16:54;;;;;;;4.68;2.65;;;40.50;60.20;;;;;;5051077;28;20263;-64
2022/06/30 06:19:21;;;;;;;4.40;3.00;;;40.70;59.80;;;;;;5051335;28;20205;-64
2022/06/30 06:21:48;;;;;;;3.92;3.00;;;40.90;59.00;;;;;;5051165;28;20202;-64
2022/06/30 06:24:15;;;;;;;7.00;2.63;;;40.70;59.40;;;;;;5051596;28;20232;-64
2022/06/30 06:26:43;;;;;;;4.65;2.40;;;41.10;58.30;;;;;;5051059;28;20213;-64
2022/06/30 06:29:10;;;;;;;3.83;2.60;;;41.10;57.70;;;;;;5048444;28;20465;-65
2022/06/30 06:31:38;;;;;;;4.35;2.67;;;40.40;58.40;;;;;;5044761;28;20201;-65
2022/06/30 06:34:05;;;;;;;4.72;2.97;;;40.10;59.00;;;;;;5050494;28;20275;-64
2022/06/30 06:36:33;;;;;;;3.72;2.70;;;40.10;59.10;;;;;;5049698;28;20244;-67
2022/06/30 06:39:00;;;;;;;4.60;2.63;;;40.70;58.40;;;;;;5050440;28;20205;-66
2022/06/30 06:41:27;;;;;;;3.45;2.60;;;41.40;57.20;;;;;;5053872;28;20213;-66
2022/06/30 06:43:55;;;;;;;4.22;2.55;;;42.20;56.00;;;;;;5053827;28;20233;-66
2022/06/30 06:46:26;;;;;;;6.00;2.67;;;42.50;55.20;;;;;;5054640;28;20219;-66
2022/06/30 06:48:54;;;;;;;5.25;2.60;;;43.00;54.20;;;;;;5055334;28;20189;-68
2022/06/30 06:51:20;;;;;;;3.72;2.40;;;43.30;53.20;;;;;;5055280;28;20666;-66
2022/06/30 06:53:47;;;;;;;4.82;2.50;;;43.60;53.20;;;;;;5054957;28;20454;-66
2022/06/30 06:56:14;;;;;;;4.72;2.20;;;43.90;52.20;;;;;;5054472;28;20610;-68
2022/06/30 06:58:40;;;;;;;4.32;2.60;;;44.10;51.90;;;;;;5054292;28;20212;-67
2022/06/30 07:01:08;;;;;;;4.70;2.47;;;44.50;51.40;;;;;;5054398;28;20270;-67
2022/06/30 07:03:35;;;;;;;3.50;2.30;;;44.90;50.50;;;;;;5053405;28;20283;-66
2022/06/30 07:06:02;;;;;;;4.22;2.38;;;45.40;49.20;;;;;;5053742;28;20205;-67
2022/06/30 07:08:28;;;;;;;5.05;2.30;;;45.60;48.30;;;;;;5053498;28;20205;-66
2022/06/30 07:10:56;;;;;;;6.70;2.22;;;45.70;47.90;;;;;;5052423;28;20216;-68
2022/06/30 07:13:23;;;;;;;5.15;2.38;;;45.60;47.20;;;;;;5051296;28;20229;-66
2022/06/30 07:15:50;;;;;;;6.20;2.55;;;45.30;47.50;;;;;;5051263;28;20205;-68
2022/06/30 07:18:18;;;;;;;4.95;2.65;;;45.60;47.30;;;;;;5052702;28;20205;-68
2022/06/30 07:20:45;;;;;;;6.00;2.20;;;46.00;46.50;;;;;;5053157;28;20212;-68
2022/06/30 07:23:12;;;;;;;3.72;2.10;;;46.60;45.00;;;;;;5052981;28;20755;-68
2022/06/30 07:25:39;;;;;;;3.47;2.20;;;47.40;43.90;;;;;;5053150;28;20212;-69
2022/06/30 07:28:05;;;;;;;3.20;2.40;;;47.70;43.40;;;;;;5052468;28;20212;-67
2022/06/30 07:30:32;;;;;;;3.47;1.85;;;47.90;42.80;;;;;;5052944;28;20217;-69
2022/06/30 07:32:59;;;;;;;3.78;2.17;;;48.20;42.30;;;;;;5052926;28;20252;-66
2022/06/30 07:35:27;;;;;;;3.47;2.05;;;48.50;42.10;;;;;;5052760;28;20572;-67
2022/06/30 07:37:54;;;;;;;4.15;1.90;;;48.90;41.20;;;;;;5052862;28;20259;-67
2022/06/30 07:40:20;;;;;;;3.22;2.10;;;49.40;40.20;;;;;;5052549;28;20393;-69
2022/06/30 07:42:48;;;;;;;3.45;2.00;;;49.70;40.00;;;;;;5052527;28;20212;-68
2022/06/30 07:45:15;;;;;;;4.18;1.80;;;50.00;39.50;;;;;;5052524;28;20578;-67
2022/06/30 07:47:43;;;;;;;6.20;2.00;;;50.00;38.80;;;;;;5052598;28;20205;-69
2022/06/30 07:50:10;;;;;;;5.45;2.17;;;50.20;38.90;;;;;;5052193;28;20228;-67
2022/06/30 07:52:38;;;;;;;2.88;1.83;;;50.50;38.30;;;;;;5052204;28;20212;-69
2022/06/30 07:55:06;;;;;;;4.07;1.90;;;51.00;37.60;;;;;;5052599;28;20209;-68
2022/06/30 07:57:36;;;;;;;3.28;1.92;;;50.30;37.70;;;;;;5052618;28;20208;-67
2022/06/30 08:00:05;;;;;;;4.05;2.80;;;49.00;38.60;;;;;;5052255;28;20198;-67
2022/06/30 08:02:31;;;;;;;5.00;1.75;;;49.20;38.80;;;;;;5052981;28;20255;-67
2022/06/30 08:04:58;;;;;;;6.70;2.05;;;49.30;38.20;;;;;;5052247;28;20205;-66
2022/06/30 08:07:25;;;;;;;4.68;1.88;;;49.40;37.90;;;;;;5052467;28;20227;-66
2022/06/30 08:09:53;;;;;;;4.18;1.60;;;49.60;37.60;;;;;;5051461;28;20209;-68
2022/06/30 08:12:20;;;;;;;4.18;2.00;;;49.70;37.20;;;;;;5052399;28;20261;-66
2022/06/30 08:14:47;;;;;;;3.90;1.83;;;49.30;37.60;;;;;;5054255;28;20228;-67
2022/06/30 08:17:14;;;;;;;5.75;1.90;;;48.70;38.00;;;;;;5053062;28;20216;-67
2022/06/30 08:19:41;;;;;;;3.40;2.10;;;48.60;37.90;;;;;;5053032;28;20208;-67
2022/06/30 08:22:08;;;;;;;4.88;1.92;;;48.60;38.00;;;;;;5053130;28;20233;-68
2022/06/30 08:24:35;;;;;;;4.40;1.85;;;48.50;38.20;;;;;;5053037;28;20634;-68
2022/06/30 08:27:03;;;;;;;3.83;2.08;;;48.30;37.90;;;;;;5052688;28;20215;-67
2022/06/30 08:29:32;;;;;;;4.25;1.85;;;47.20;38.80;;;;;;5052924;28;20197;-65
2022/06/30 08:31:59;;;;;;;5.00;2.00;;;45.30;41.00;;;;;;5052846;28;20219;-67
2022/06/30 08:34:26;;;;;;;3.40;2.20;;;44.90;41.70;;;;;;5052655;28;20237;-65
2022/06/30 08:36:53;;;;;;;4.28;2.00;;;45.10;41.50;;;;;;5052237;28;20210;-66
2022/06/30 08:42:06;;;;;;;4.32;2.10;;;44.80;41.40;;;;;;5052851;28;20203;-65
2022/06/30 08:44:35;;;;;;;4.25;2.08;;;45.20;41.00;;;;;;5052740;28;20739;-67
2022/06/30 08:47:04;;;;;;;3.20;2.10;;;45.20;41.00;;;;;;5052523;28;20205;-66
2022/06/30 08:49:32;;;;;;;5.97;1.92;;;44.50;41.70;;;;;;5052910;28;20208;-66
2022/06/30 08:52:01;;;;;;;4.05;1.90;;;44.00;41.60;;;;;;5053100;28;20205;-67
2022/06/30 08:54:29;;;;;;;3.70;2.15;;;43.50;42.60;;;;;;5053757;28;20763;-66
2022/06/30 08:56:58;;;;;;;8.13;2.30;;;42.50;44.10;;;;;;5053571;28;20212;-66
2022/06/30 08:59:27;;;;;;;4.75;2.20;;;41.20;45.40;;;;;;5054790;28;20201;-67
2022/06/30 09:01:54;;;;;;;5.03;2.40;;;40.20;47.10;;;;;;5052835;28;20216;-66
2022/06/30 09:04:22;;;;;;;4.05;2.10;;;39.10;48.20;;;;;;5053248;28;20763;-66
2022/06/30 09:06:49;;;;;;;5.45;2.47;;;37.90;50.20;;;;;;5052721;28;20288;-66
2022/06/30 09:09:16;;;;;;;5.22;2.70;;;36.60;52.00;;;;;;5055339;28;20255;-68
2022/06/30 09:11:48;;;;;;;5.63;2.63;;;35.80;52.70;;;;;;5058000;28;20209;-67
2022/06/30 09:14:35;;;;;;;4.07;2.35;;;35.10;54.10;;;;;;5057923;28;20249;-68
2022/06/30 09:17:02;;;;;;;3.22;2.28;;;34.70;55.20;;;;;;5055255;28;20257;-67
2022/06/30 09:19:30;;;;;;;4.47;2.50;;;34.30;55.20;;;;;;5055395;28;20201;-67
2022/06/30 09:22:06;;;;;;;4.90;2.45;;;34.00;54.20;;;;;;5056395;28;20213;-66
2022/06/30 09:24:32;;;;;;;4.47;2.22;;;33.80;55.40;;;;;;5057542;28;20228;-67
2022/06/30 09:27:19;;;;;;;6.07;2.45;;;33.50;56.20;;;;;;5056130;28;20210;-67
2022/06/30 09:29:49;;;;;;;4.68;2.40;;;33.10;56.90;;;;;;5049610;28;20475;-67
2022/06/30 09:32:16;;;;;;;4.78;2.30;;;32.90;57.00;;;;;;5053637;28;20229;-67
2022/06/30 09:34:43;;;;;;;5.32;2.00;;;32.80;55.20;;;;;;5073949;23;20237;-64
2022/06/30 09:37:17;;;;;;;3.13;2.00;;;32.80;55.20;;;;;;5051931;28;20201;-66
2022/06/30 09:39:45;;;;;;;3.60;2.08;;;32.80;55.30;;;;;;5052931;28;20642;-67
2022/06/30 09:42:12;;;;;;;3.40;2.00;;;32.70;55.30;;;;;;5051996;28;20692;-63
2022/06/30 09:44:39;;;;;;;4.75;2.13;;;32.60;54.40;;;;;;5052616;28;20218;-64
2022/06/30 09:47:10;;;;;;;5.65;2.00;;;32.40;55.10;;;;;;5052159;28;20268;-66
2022/06/30 09:49:39;;;;;;;4.80;1.98;;;32.20;54.90;;;;;;5052302;28;20589;-63
2022/06/30 09:52:16;;;;;;;4.38;2.15;;;32.10;57.00;;;;;;5051964;28;20210;-67
2022/06/30 09:54:54;;;;;;;4.65;2.10;;;32.00;57.80;;;;;;5051889;28;20236;-65
2022/06/30 09:57:22;;;;;;;3.88;2.10;;;31.90;57.00;;;;;;5052229;28;20206;-64
2022/06/30 09:59:58;;;;;;;5.63;2.50;;;31.80;56.30;;;;;;5052307;28;20216;-65
2022/06/30 10:02:31;;;;;;;4.53;2.20;;;31.60;56.20;;;;;;5052932;28;20209;-66
2022/06/30 10:04:59;;;;;;;2.70;2.05;;;31.60;56.20;;;;;;5053663;28;20295;-65
2022/06/30 10:07:26;;;;;;;3.40;2.30;;;31.70;57.00;;;;;;5052517;28;20198;-66
2022/06/30 10:09:53;;;;;;;4.55;2.20;;;31.50;57.90;;;;;;5052846;28;20746;-63
2022/06/30 10:12:21;;;;;;;5.10;2.05;;;31.50;57.60;;;;;;5052409;28;20205;-63
2022/06/30 10:14:50;;;;;;;4.45;2.25;;;31.70;57.90;;;;;;5055423;28;20229;-65
2022/06/30 10:17:20;;;;;;;4.00;1.98;;;31.70;57.60;;;;;;5055439;28;20638;-65
2022/06/30 10:19:50;;;;;;;5.32;1.90;;;31.70;58.30;;;;;;5056102;28;20217;-64
2022/06/30 10:22:17;;;;;;;3.47;1.98;;;31.50;57.70;;;;;;5055280;28;20214;-63
2022/06/30 10:24:45;;;;;;;4.55;2.10;;;31.60;57.90;;;;;;5055489;28;20225;-65
2022/06/30 10:27:13;;;;;;;7.70;2.20;;;31.70;57.40;;;;;;5055000;28;20202;-66
2022/06/30 10:29:40;;;;;;;5.13;2.00;;;31.80;57.60;;;;;;5055222;28;20689;-64
2022/06/30 10:32:14;;;;;;;4.88;2.30;;;32.00;57.30;;;;;;5055860;28;20213;-64
2022/06/30 10:34:46;;;;;;;5.35;2.20;;;32.10;56.10;;;;;;5055357;28;20226;-62
2022/06/30 10:37:20;;;;;;;5.53;2.70;;;31.90;54.80;;;;;;5055173;28;20208;-62
2022/06/30 10:39:56;;;;;;;4.38;2.20;;;31.80;55.50;;;;;;5055330;28;20210;-62
2022/06/30 10:42:42;;;;;;;3.40;2.10;;;31.60;56.60;;;;;;5055430;28;20216;-62
2022/06/30 10:45:34;;;;;;;5.10;2.17;;;31.50;55.60;;;;;;5055191;28;20225;-63
2022/06/30 10:48:03;;;;;;;6.60;2.50;;;31.60;57.20;;;;;;5055020;28;20205;-61
2022/06/30 10:50:35;;;;;;;3.85;2.20;;;31.70;56.90;;;;;;5054958;28;20217;-61
2022/06/30 10:53:04;;;;;;;2.38;2.17;;;31.90;57.40;;;;;;5054915;28;20213;-61
2022/06/30 10:55:43;;;;;;;5.75;2.20;;;31.90;57.20;;;;;;5055175;28;20673;-61
2022/06/30 10:58:10;;;;;;;4.97;2.30;;;32.00;57.10;;;;;;5055054;28;20275;-61
2022/06/30 11:00:51;;;;;;;2.97;2.20;;;32.00;55.90;;;;;;5055535;28;20212;-61
2022/06/30 11:04:00;;;;;;;4.95;2.50;;;32.00;56.80;;;;;;5055214;28;20226;-62
2022/06/30 11:06:56;;;;;;;4.05;2.28;;;32.10;58.10;;;;;;5054927;28;20205;-63
2022/06/30 11:10:04;;;;;;;3.05;2.10;;;32.00;57.50;;;;;;5054691;28;20248;-61
2022/06/30 11:12:58;;;;;;;3.58;2.60;;;32.10;56.50;;;;;;5055130;28;20213;-62
2022/06/30 11:15:54;;;;;;;3.47;2.33;;;32.40;56.70;;;;;;5055490;28;20237;-61
2022/06/30 11:18:21;;;;;;;4.30;2.45;;;32.50;56.80;;;;;;5054858;28;20213;-61
2022/06/30 11:20:50;;;;;;;3.75;2.05;;;32.50;56.20;;;;;;5055144;28;20217;-61
2022/06/30 11:23:19;;;;;;;6.75;2.60;;;32.40;56.00;;;;;;5054595;28;20312;-61
2022/06/30 11:28:35;;;;;;;4.68;2.25;;;32.50;56.10;;;;;;5054515;28;20200;-61
2022/06/30 11:31:02;;;;;;;5.82;4.35;;;32.50;56.10;;;;;;5054876;28;20237;-61
2022/06/30 11:33:28;;;;;;;4.30;2.55;;;32.60;56.20;;;;;;5054403;28;20735;-61
2022/06/30 11:36:04;;;;;;;6.40;2.50;;;32.70;56.20;;;;;;5054393;28;20217;-61
2022/06/30 11:38:31;;;;;;;2.88;2.50;;;32.90;56.30;;;;;;5054068;28;20209;-61
2022/06/30 11:41:54;;;;;;;4.43;2.10;;;32.80;56.90;;;;;;5054206;28;20209;-61
2022/06/30 11:43:52;;;;;;;5.97;2.55;;;32.80;57.30;;;;;;5054014;28;20217;-61
2022/06/30 11:46:19;;;;;;;6.45;2.40;;;32.90;57.00;;;;;;5054346;28;20275;-62
2022/06/30 11:48:46;;;;;;;3.15;2.28;;;33.00;56.50;;;;;;5053697;28;20689;-62
2022/06/30 11:51:14;;;;;;;8.95;2.28;;;32.90;56.30;;;;;;5054173;28;20209;-62
2022/06/30 11:53:41;;;;;;;5.13;2.30;;;32.90;55.90;;;;;;5053960;28;20603;-62
2022/06/30 11:56:08;;;;;;;7.50;2.28;;;32.90;55.20;;;;;;5054419;28;20206;-62
2022/06/30 11:58:35;;;;;;;2.47;1.90;;;33.10;55.00;;;;;;5053882;28;20210;-62
2022/06/30 12:01:17;;;;;;;4.13;2.40;;;33.20;54.90;;;;;;5054706;28;20247;-61
2022/06/30 12:03:44;;;;;;;5.40;2.45;;;33.30;55.50;;;;;;5054367;28;20287;-61
2022/06/30 12:06:11;;;;;;;4.75;2.30;;;33.10;55.10;;;;;;5055022;28;20240;-61
2022/06/30 12:08:39;;;;;;;2.97;2.03;;;33.30;54.70;;;;;;5054484;28;20271;-62
2022/06/30 12:11:07;;;;;;;3.75;2.30;;;33.30;53.30;;;;;;5054142;28;20206;-62
2022/06/30 12:13:34;;;;;;;3.40;1.98;;;33.50;53.30;;;;;;5053977;28;20234;-61
2022/06/30 12:16:04;;;;;;;3.38;2.40;;;33.50;52.80;;;;;;5053811;28;20206;-61
2022/06/30 12:18:33;;;;;;;3.92;2.40;;;33.60;53.20;;;;;;5053838;28;20289;-62
2022/06/30 12:21:01;;;;;;;3.75;2.08;;;33.60;53.90;;;;;;5054034;28;20233;-62
2022/06/30 12:23:28;;;;;;;4.00;2.45;;;33.50;54.40;;;;;;5053653;28;20226;-62
2022/06/30 12:25:54;;;;;;;9.85;2.47;;;33.60;54.50;;;;;;5053489;28;20669;-61
2022/06/30 12:28:22;;;;;;;5.38;1.98;;;33.70;54.60;;;;;;5053310;28;20206;-62
2022/06/30 12:30:51;;;;;;;4.43;2.60;;;33.80;53.80;;;;;;5053960;28;20205;-62
2022/06/30 12:33:18;;;;;;;4.57;2.25;;;33.90;53.70;;;;;;5053426;28;20253;-61
2022/06/30 12:35:47;;;;;;;3.58;2.53;;;34.10;53.00;;;;;;5053773;28;20225;-61
2022/06/30 12:38:16;;;;;;;5.80;2.00;;;34.20;52.90;;;;;;5053241;28;20531;-61
2022/06/30 12:40:42;;;;;;;5.90;2.45;;;34.30;52.60;;;;;;5053413;28;20639;-62
2022/06/30 12:43:09;;;;;;;3.30;2.00;;;34.50;52.00;;;;;;5052944;28;20229;-61
2022/06/30 12:45:49;;;;;;;3.53;2.35;;;34.60;50.70;;;;;;5052996;28;20229;-62
2022/06/30 12:48:32;;;;;;;5.70;2.30;;;34.60;50.00;;;;;;5052654;28;20673;-62
2022/06/30 12:51:00;;;;;;;5.88;2.53;;;34.60;50.40;;;;;;5052169;28;20216;-62
2022/06/30 12:53:27;;;;;;;3.47;2.17;;;34.60;51.40;;;;;;5053257;28;20225;-61
2022/06/30 12:55:59;;;;;;;3.65;2.08;;;34.60;51.00;;;;;;5052897;28;20711;-62
2022/06/30 12:58:26;;;;;;;6.30;2.30;;;34.70;50.60;;;;;;5052690;28;20654;-61
2022/06/30 13:00:59;;;;;;;3.50;2.10;;;34.70;51.10;;;;;;5052992;28;20232;-61
2022/06/30 13:03:26;;;;;;;3.90;2.38;;;34.70;51.00;;;;;;5052642;28;20717;-60
2022/06/30 13:05:52;;;;;;;4.32;2.33;;;34.60;50.70;;;;;;5052549;28;20560;-61
2022/06/30 13:08:20;;;;;;;2.22;1.92;;;34.50;51.50;;;;;;5052505;28;20228;-60
2022/06/30 13:11:05;;;;;;;3.97;2.53;;;34.50;51.60;;;;;;5052590;28;20204;-61